»·PEaware :: N7GL KJAC-KCPR

N7GL :: KJAC-KCPR

FLIGHT INFORMATION

Flight Status: Arrived
Operator: Privately registered:
United States
More flights under this callsign
Pilot: Georg L. (13308)
Aircraft: BEECH AIRCRAFT SUPER KING AIR 350
(B350)
More flights by this aircraft type
Origin: KJAC Jackson Hole
United States
Destination: KCPR Natrona Co Intl
United States
More flights between these airports :: More routes between these airports
Route: +GEYSR5 NALSI BOY
File this flight plan on PilotEdge
Remarks:
Altitude:
(Current/Filed)
27,000ft
Speed:
(Current/Filed)
304kts
Departed: 22-Oct-20 07:17 AM
Arrived: 22-Oct-20 08:03 AM
Distance/Time
Traveled:
192nm/0:46
Distance/Time
To Go:
Arrived

Flight Plot

Page will automatically refresh every two minutes.

Flight plan parsing failed; only flown route is shown


Map Options




Map Legend


Flown Route
Filed Route
Departure Airport
Arrival Airport
Navaid (VOR, NDB)
Fix

Horizontal Profiles

Position Reports

Time Latitude Longitude Heading Altitude Ground
Speed
22-Oct-20 06:54 43.600189 -110.738441 109 6426ft 0kts
22-Oct-20 06:55 43.600189 -110.738441 109 6426ft 0kts
22-Oct-20 06:56 43.600189 -110.738441 109 6426ft 0kts
22-Oct-20 06:57 43.600189 -110.738441 109 6426ft 0kts
22-Oct-20 06:58 43.600189 -110.738441 109 6426ft 0kts
22-Oct-20 06:59 43.600189 -110.738441 109 6426ft 0kts
22-Oct-20 07:00 43.600189 -110.738441 110 6426ft 0kts
22-Oct-20 07:01 43.600189 -110.738441 109 6426ft 0kts
22-Oct-20 07:02 43.600189 -110.738441 109 6426ft 0kts
22-Oct-20 07:03 43.600189 -110.738441 109 6426ft 0kts
22-Oct-20 07:04 43.600189 -110.738441 109 6426ft 0kts
22-Oct-20 07:05 43.600189 -110.738441 109 6426ft 0kts
22-Oct-20 07:06 43.600189 -110.738441 109 6426ft 0kts
22-Oct-20 07:07 43.600189 -110.738441 109 6426ft 0kts
22-Oct-20 07:08 43.600189 -110.738441 109 6426ft 0kts
22-Oct-20 07:09 43.600189 -110.738441 109 6426ft 0kts
22-Oct-20 07:10 43.600189 -110.738441 109 6426ft 0kts
22-Oct-20 07:11 43.599849 -110.738567 243 6426ft 3kts
22-Oct-20 07:12 43.599952 -110.739563 252 6426ft 10kts
22-Oct-20 07:13 43.599004 -110.740388 248 6426ft 0kts
22-Oct-20 07:14 43.599003 -110.740390 248 6426ft 0kts
22-Oct-20 07:15 43.598982 -110.740559 271 6426ft 5kts
22-Oct-20 07:16 43.612806 -110.735045 20 6832ft 118kts
22-Oct-20 07:17 43.648565 -110.716156 17 8498ft 167kts
22-Oct-20 07:18 43.689971 -110.679257 34 10211ft 193kts
22-Oct-20 07:19 43.719782 -110.651478 30 11398ft 199kts
22-Oct-20 07:20 43.768410 -110.613996 21 13054ft 206kts
22-Oct-20 07:21 43.819094 -110.574340 19 14683ft 213kts
22-Oct-20 07:22 43.852378 -110.504586 103 15883ft 257kts
22-Oct-20 07:23 43.836585 -110.408877 108 17701ft 265kts
22-Oct-20 07:24 43.819557 -110.307209 110 19284ft 275kts
22-Oct-20 07:25 43.801975 -110.202647 110 20606ft 282kts
22-Oct-20 07:26 43.783748 -110.094955 111 21659ft 290kts
22-Oct-20 07:27 43.765018 -109.984854 112 22661ft 296kts
22-Oct-20 07:28 43.745836 -109.872848 113 23587ft 302kts
22-Oct-20 07:29 43.726182 -109.758873 113 24599ft 308kts
22-Oct-20 07:30 43.706072 -109.643034 114 25574ft 313kts
22-Oct-20 07:31 43.685477 -109.525188 114 26465ft 319kts
22-Oct-20 07:32 43.664208 -109.404688 114 27093ft 333kts
22-Oct-20 07:33 43.641781 -109.278142 115 27638ft 343kts
22-Oct-20 07:34 43.617921 -109.142817 113 26971ft 390kts
22-Oct-20 07:35 43.591585 -108.998119 112 27179ft 390kts
22-Oct-20 07:36 43.565293 -108.852705 112 27263ft 392kts
22-Oct-20 07:37 43.538675 -108.706770 112 27356ft 395kts
22-Oct-20 07:38 43.513003 -108.557694 114 27180ft 401kts
22-Oct-20 07:39 43.484127 -108.410023 113 27036ft 407kts
22-Oct-20 07:40 43.454279 -108.257420 118 25692ft 411kts
22-Oct-20 07:41 43.413121 -108.113805 123 24474ft 399kts
22-Oct-20 07:42 43.367071 -107.975343 125 22863ft 398kts
22-Oct-20 07:43 43.323437 -107.835744 118 21266ft 399kts
22-Oct-20 07:44 43.285658 -107.692704 118 19436ft 392kts
22-Oct-20 07:45 43.245278 -107.556241 122 17804ft 379kts
22-Oct-20 07:46 43.205080 -107.425420 117 16416ft 372kts
22-Oct-20 07:47 43.164901 -107.301219 122 15959ft 342kts
22-Oct-20 07:48 43.128350 -107.183355 118 16023ft 331kts
22-Oct-20 07:49 43.096371 -107.065200 123 15940ft 328kts
22-Oct-20 07:50 43.056182 -106.955680 121 15974ft 327kts
22-Oct-20 07:51 43.025189 -106.836807 117 15898ft 330kts
22-Oct-20 07:52 42.975369 -106.741642 167 15164ft 285kts
22-Oct-20 07:53 42.911546 -106.758343 205 13545ft 229kts
22-Oct-20 07:54 42.854150 -106.770478 192 11872ft 239kts
22-Oct-20 07:55 42.794601 -106.737211 136 10529ft 244kts
22-Oct-20 07:57 42.750816 -106.673066 119 9509ft 226kts
22-Oct-20 07:58 42.772620 -106.614802 7 8615ft 173kts
22-Oct-20 07:59 42.808365 -106.584203 41 7289ft 153kts
22-Oct-20 08:00 42.836579 -106.548058 45 6865ft 135kts
22-Oct-20 08:01 42.861867 -106.516131 38 6094ft 104kts
22-Oct-20 08:02 42.882152 -106.489691 39 5642ft 99kts
22-Oct-20 08:03 42.898665 -106.468181 42 5319ft 32kts
22-Oct-20 08:04 42.900514 -106.463850 176 5319ft 10kts
22-Oct-20 08:05 42.900194 -106.463532 120 5319ft 0kts
22-Oct-20 08:06 42.901070 -106.462202 44 5319ft 11kts
22-Oct-20 08:07 42.901012 -106.460421 312 5319ft 0kts
22-Oct-20 08:08 42.901018 -106.460430 312 5319ft 0kts
22-Oct-20 08:09 42.901018 -106.460430 312 5319ft 0kts
22-Oct-20 08:10 42.901018 -106.460430 312 5319ft 0kts

Navigation Log

Ident Type
Flight plan parsing failed, navigation log unavailable